createdAt,value
2023-02-11T00:00:52.795Z,1059.00
2023-02-11T00:01:52.615Z,1055.00
2023-02-11T00:02:52.508Z,1052.00
2023-02-11T00:03:52.406Z,1052.00
2023-02-11T00:04:52.311Z,1049.00
2023-02-11T00:05:52.439Z,1040.00
2023-02-11T00:06:52.077Z,1039.00
2023-02-11T00:07:51.990Z,1038.00
2023-02-11T00:08:51.887Z,1035.00
2023-02-11T00:09:51.774Z,1031.00
2023-02-11T00:10:51.911Z,1030.00
2023-02-11T00:11:51.568Z,1034.00
2023-02-11T00:12:51.483Z,1032.00
2023-02-11T00:13:51.413Z,1028.00
2023-02-11T00:14:51.240Z,1027.00
2023-02-11T00:15:51.456Z,1024.00
2023-02-11T00:16:51.128Z,1022.00
2023-02-11T00:17:50.931Z,1021.00
2023-02-11T00:18:50.856Z,1024.00
2023-02-11T00:19:50.725Z,1022.00
2023-02-11T00:20:50.637Z,1018.00
2023-02-11T00:21:50.533Z,1017.00
2023-02-11T00:22:50.432Z,1013.00
2023-02-11T00:23:50.352Z,1009.00
2023-02-11T00:24:50.220Z,1011.00
2023-02-11T00:25:50.421Z,1008.00
2023-02-11T00:26:50.018Z,1005.00
2023-02-11T00:27:49.973Z,1004.00
2023-02-11T00:28:49.873Z,1005.00
2023-02-11T00:29:49.717Z,1001.00
2023-02-11T00:30:49.712Z,998.00
2023-02-11T00:31:49.641Z,998.00
2023-02-11T00:32:49.417Z,996.00
2023-02-11T00:33:49.300Z,994.00
2023-02-11T00:34:49.211Z,991.00
2023-02-11T00:35:49.477Z,992.00
2023-02-11T00:36:48.981Z,987.00
2023-02-11T00:37:48.915Z,985.00
2023-02-11T00:38:48.802Z,983.00
2023-02-11T00:39:48.698Z,982.00
2023-02-11T00:40:48.580Z,980.00
2023-02-11T00:41:48.480Z,978.00
2023-02-11T00:42:48.410Z,979.00
2023-02-11T00:43:48.288Z,981.00
2023-02-11T00:44:48.217Z,980.00
2023-02-11T00:45:48.318Z,978.00
2023-02-11T00:46:47.966Z,974.00
2023-02-11T00:47:47.902Z,972.00
2023-02-11T00:48:47.766Z,969.00
2023-02-11T00:49:47.666Z,966.00
2023-02-11T00:50:47.593Z,961.00
2023-02-11T00:51:47.480Z,959.00
2023-02-11T00:52:47.360Z,954.00
2023-02-11T00:53:47.267Z,951.00
2023-02-11T00:54:47.156Z,948.00
2023-02-11T00:55:47.152Z,947.00
2023-02-11T00:56:46.932Z,944.00
2023-02-11T00:57:46.835Z,946.00
2023-02-11T00:58:47.068Z,941.00
2023-02-11T00:59:46.638Z,937.00
2023-02-11T01:00:46.531Z,938.00
2023-02-11T01:01:46.527Z,938.00
2023-02-11T01:02:46.324Z,938.00
2023-02-11T01:03:46.310Z,939.00
2023-02-11T01:04:46.133Z,937.00
2023-02-11T01:05:46.057Z,938.00
2023-02-11T01:06:45.920Z,935.00
2023-02-11T01:07:45.851Z,931.00
2023-02-11T01:08:45.719Z,929.00
2023-02-11T01:09:45.620Z,929.00
2023-02-11T01:10:45.520Z,927.00
2023-02-11T01:11:45.423Z,922.00
2023-02-11T01:12:45.319Z,923.00
2023-02-11T01:13:45.236Z,923.00
2023-02-11T01:14:45.127Z,919.00
2023-02-11T01:15:45.064Z,920.00
2023-02-11T01:16:44.920Z,917.00
2023-02-11T01:17:44.811Z,913.00
2023-02-11T01:18:44.696Z,913.00
2023-02-11T01:19:44.602Z,914.00
2023-02-11T01:20:44.506Z,914.00
2023-02-11T01:21:44.400Z,909.00
2023-02-11T01:22:44.311Z,910.00
2023-02-11T01:23:44.220Z,910.00
2023-02-11T01:24:44.120Z,907.00
2023-02-11T01:25:44.000Z,906.00
2023-02-11T02:12:39.263Z,849.00
2023-02-11T02:13:39.187Z,850.00
2023-02-11T02:14:39.126Z,854.00
2023-02-11T02:15:39.611Z,847.00
2023-02-11T02:16:38.876Z,839.00
2023-02-11T02:17:38.730Z,840.00
2023-02-11T02:18:38.642Z,839.00
2023-02-11T02:19:39.078Z,840.00
2023-02-11T02:20:38.429Z,834.00
2023-02-11T02:21:38.342Z,830.00
2023-02-11T02:22:38.241Z,824.00
2023-02-11T02:23:38.145Z,825.00
2023-02-11T02:24:38.038Z,824.00
2023-02-11T02:25:37.920Z,825.00
2023-02-11T02:26:37.823Z,826.00
2023-02-11T02:27:37.723Z,825.00
2023-02-11T02:28:37.615Z,822.00
2023-02-11T02:29:38.592Z,818.00
2023-02-11T02:30:37.442Z,816.00
2023-02-11T02:31:37.348Z,818.00
2023-02-11T02:32:37.197Z,818.00
2023-02-11T02:33:37.087Z,813.00
2023-02-11T02:34:36.983Z,809.00
2023-02-11T02:35:36.918Z,807.00
2023-02-11T02:36:36.787Z,806.00
2023-02-11T02:37:36.666Z,802.00
2023-02-11T02:38:36.569Z,800.00
2023-02-11T02:39:36.476Z,799.00
2023-02-11T02:40:36.365Z,799.00
2023-02-11T02:41:36.260Z,799.00
2023-02-11T02:42:36.183Z,800.00
2023-02-11T02:43:36.053Z,800.00
2023-02-11T02:44:36.016Z,799.00
2023-02-11T02:45:35.875Z,796.00
2023-02-11T02:46:35.779Z,790.00
2023-02-11T02:47:35.642Z,791.00
2023-02-11T02:48:35.536Z,786.00
2023-02-11T02:49:35.442Z,783.00
2023-02-11T02:50:35.353Z,777.00
2023-02-11T02:51:35.256Z,773.00
2023-02-11T02:52:35.124Z,771.00
2023-02-11T02:53:35.020Z,770.00
2023-02-11T02:54:34.923Z,768.00
2023-02-11T02:55:34.839Z,768.00
2023-02-11T02:56:34.726Z,764.00
2023-02-11T02:57:34.608Z,765.00
2023-02-11T02:58:34.506Z,768.00
2023-02-11T02:59:35.099Z,767.00
2023-02-11T03:00:34.347Z,762.00
2023-02-11T03:01:34.200Z,752.00
2023-02-11T03:02:34.081Z,749.00
2023-02-11T03:03:34.025Z,746.00
2023-02-11T03:41:30.248Z,674.00
2023-02-11T03:42:30.149Z,671.00
2023-02-11T03:43:30.047Z,670.00
2023-02-11T03:44:29.970Z,666.00
2023-02-11T03:45:29.907Z,662.00
2023-02-11T03:46:29.761Z,660.00
2023-02-11T03:47:29.666Z,656.00
2023-02-11T03:48:29.540Z,651.00
2023-02-11T03:49:29.462Z,650.00
2023-02-11T03:50:29.369Z,650.00
2023-02-11T03:51:29.294Z,648.00
2023-02-11T03:52:29.185Z,648.00
2023-02-11T03:53:29.063Z,646.00
2023-02-11T03:54:29.613Z,643.00
2023-02-11T03:55:28.862Z,643.00
2023-02-11T03:56:28.799Z,643.00
2023-02-11T03:57:28.672Z,643.00
2023-02-11T03:58:28.612Z,640.00
2023-02-11T03:59:28.518Z,640.00
2023-02-11T04:00:28.424Z,635.00
2023-02-11T04:01:28.395Z,634.00
2023-02-11T04:02:28.226Z,633.00
2023-02-11T04:03:28.162Z,630.00
2023-02-11T04:04:28.029Z,630.00
2023-02-11T04:05:27.978Z,625.00
2023-02-11T04:06:27.853Z,628.00
2023-02-11T04:07:27.751Z,625.00
2023-02-11T04:08:27.657Z,621.00
2023-02-11T04:09:30.150Z,623.00
2023-02-11T04:10:27.659Z,624.00
2023-02-11T04:11:27.573Z,623.00
2023-02-11T04:12:27.467Z,622.00
2023-02-11T04:13:27.392Z,620.00
2023-02-11T04:14:27.290Z,619.00
2023-02-11T04:15:27.196Z,620.00
2023-02-11T04:16:27.170Z,619.00
2023-02-11T04:17:27.029Z,617.00
2023-02-11T04:18:26.992Z,615.00
2023-02-11T04:19:26.962Z,614.00
2023-02-11T04:20:26.906Z,613.00
2023-02-11T04:21:26.927Z,612.00
2023-02-11T04:22:26.896Z,612.00
2023-02-11T04:23:26.796Z,613.00
2023-02-11T04:24:26.761Z,610.00
2023-02-11T04:25:26.747Z,608.00
2023-02-11T04:26:26.706Z,608.00
2023-02-11T04:27:26.644Z,606.00
2023-02-11T04:28:26.655Z,608.00
2023-02-11T04:29:26.565Z,607.00
2023-02-11T04:30:26.529Z,606.00
2023-02-11T04:31:26.633Z,603.00
2023-02-11T04:32:26.475Z,604.00
2023-02-11T04:33:26.413Z,603.00
2023-02-11T04:34:26.408Z,603.00
2023-02-11T04:35:26.362Z,603.00
2023-02-11T04:36:26.300Z,602.00
2023-02-11T04:37:26.281Z,603.00
2023-02-11T04:38:26.329Z,600.00
2023-02-11T04:39:26.203Z,597.00
2023-02-11T04:40:26.140Z,597.00
2023-02-11T04:41:26.117Z,595.00
2023-02-11T04:42:26.108Z,588.00
2023-02-11T04:43:26.045Z,586.00
2023-02-11T04:44:25.996Z,584.00
2023-02-11T04:45:25.958Z,581.00
2023-02-11T04:46:25.985Z,578.00
2023-02-11T04:47:25.899Z,579.00
2023-02-11T04:48:25.856Z,578.00
2023-02-11T04:49:25.823Z,578.00
2023-02-11T04:50:26.653Z,577.00
2023-02-11T04:51:25.695Z,575.00
2023-02-11T04:52:25.591Z,574.00
2023-02-11T04:53:25.515Z,573.00
2023-02-11T04:54:25.401Z,572.00
2023-02-11T04:55:25.301Z,571.00
2023-02-11T04:56:25.210Z,571.00
2023-02-11T04:57:25.160Z,570.00
2023-02-11T04:58:25.077Z,571.00
2023-02-11T04:59:25.040Z,570.00
2023-02-11T05:00:24.982Z,570.00
2023-02-11T05:01:25.002Z,574.00
2023-02-11T05:02:24.910Z,576.00
2023-02-11T05:03:24.878Z,572.00
2023-02-11T05:04:24.915Z,572.00
2023-02-11T05:05:24.796Z,572.00
2023-02-11T05:06:24.744Z,570.00
2023-02-11T05:07:24.721Z,570.00
2023-02-11T05:08:24.679Z,569.00
2023-02-11T05:09:24.642Z,567.00
2023-02-11T05:10:24.594Z,566.00
2023-02-11T05:11:24.568Z,566.00
2023-02-11T05:12:24.591Z,564.00
2023-02-11T05:13:24.536Z,564.00
2023-02-11T05:14:24.437Z,566.00
2023-02-11T05:15:24.390Z,563.00
2023-02-11T05:16:24.354Z,565.00
2023-02-11T05:17:24.300Z,564.00
2023-02-11T05:18:24.275Z,558.00
2023-02-11T05:19:24.231Z,556.00
2023-02-11T05:20:24.192Z,555.00
2023-02-11T05:21:24.127Z,555.00
2023-02-11T05:22:24.098Z,554.00
2023-02-11T05:23:24.124Z,558.00
2023-02-11T05:24:24.030Z,558.00
2023-02-11T05:25:23.973Z,558.00
2023-02-11T05:26:23.934Z,558.00
2023-02-11T05:27:24.003Z,557.00
2023-02-11T05:30:24.655Z,561.00
2023-02-11T05:31:24.662Z,559.00
2023-02-11T07:23:14.377Z,511.00
2023-02-11T07:24:14.287Z,507.00
2023-02-11T07:25:14.187Z,506.00
2023-02-11T07:26:14.079Z,502.00
2023-02-11T07:27:13.985Z,502.00
2023-02-11T08:17:11.471Z,500.00
2023-02-11T08:30:10.348Z,495.00
2023-02-11T08:31:10.270Z,496.00
2023-02-11T08:32:10.258Z,497.00
2023-02-11T08:33:10.034Z,498.00
2023-02-11T08:34:09.958Z,498.00
2023-02-11T08:35:09.848Z,495.00
2023-02-11T08:36:09.755Z,500.00
2023-02-11T08:37:09.677Z,500.00
2023-02-11T08:38:09.583Z,498.00
2023-02-11T08:39:18.694Z,497.00
2023-02-11T08:41:09.305Z,498.00
2023-02-11T08:42:09.204Z,496.00
2023-02-11T08:43:09.107Z,493.00
2023-02-11T08:44:09.012Z,492.00
2023-02-11T08:45:08.957Z,494.00
2023-02-11T08:46:08.898Z,493.00
2023-02-11T08:47:08.728Z,495.00
2023-02-11T08:48:08.640Z,496.00
2023-02-11T08:49:08.566Z,497.00
2023-02-11T08:50:08.490Z,500.00
2023-02-11T08:51:08.405Z,501.00
2023-02-11T08:52:08.275Z,501.00
2023-02-11T08:53:08.185Z,500.00
2023-02-11T08:54:08.091Z,498.00
2023-02-11T08:55:08.014Z,499.00
2023-02-11T08:56:07.920Z,499.00
2023-02-11T08:57:07.834Z,500.00
2023-02-11T08:58:07.721Z,499.00
2023-02-11T08:59:07.635Z,498.00
2023-02-11T09:00:07.586Z,497.00
2023-02-11T09:01:07.495Z,495.00
2023-02-11T09:02:07.354Z,497.00
2023-02-11T09:03:07.262Z,501.00
2023-02-11T09:04:07.197Z,501.00
2023-02-11T09:05:07.175Z,504.00
2023-02-11T09:06:07.061Z,506.00
2023-02-11T09:07:06.918Z,506.00
2023-02-11T09:08:06.855Z,507.00
2023-02-11T09:09:06.757Z,503.00
2023-02-11T09:10:06.647Z,501.00
2023-02-11T09:11:06.584Z,503.00
2023-02-11T09:12:06.495Z,502.00
2023-02-11T09:13:06.404Z,503.00
2023-02-11T09:14:06.311Z,505.00
2023-02-11T09:15:06.217Z,505.00
2023-02-11T09:16:06.143Z,506.00
2023-02-11T09:17:06.236Z,504.00
2023-02-11T09:18:05.940Z,505.00
2023-02-11T09:19:05.895Z,504.00
2023-02-11T09:20:05.765Z,504.00
2023-02-11T09:21:06.267Z,504.00
2023-02-11T09:22:05.625Z,505.00
2023-02-11T09:23:08.261Z,506.00
2023-02-11T09:24:05.416Z,503.00
2023-02-11T09:25:05.317Z,503.00
2023-02-11T09:26:09.047Z,503.00
2023-02-11T09:27:05.148Z,501.00
2023-02-11T09:28:05.071Z,501.00
2023-02-11T09:29:04.980Z,500.00
2023-02-11T09:30:04.865Z,499.00
2023-02-11T09:31:04.884Z,499.00
2023-02-11T09:32:06.208Z,502.00
2023-02-11T09:33:04.584Z,504.00
2023-02-11T09:34:04.527Z,501.00
2023-02-11T09:35:04.418Z,502.00
2023-02-11T09:36:05.246Z,501.00
2023-02-11T09:37:04.248Z,503.00
2023-02-11T09:38:04.163Z,503.00
2023-02-11T09:39:04.070Z,502.00
2023-02-11T09:40:03.985Z,501.00
2023-02-11T09:41:03.877Z,499.00
2023-02-11T09:42:03.828Z,500.00
2023-02-11T09:43:06.241Z,499.00
2023-02-11T09:44:03.738Z,498.00
2023-02-11T09:45:03.668Z,500.00
2023-02-11T09:46:03.633Z,500.00
2023-02-11T09:47:03.499Z,500.00
2023-02-11T09:48:06.140Z,500.00
2023-02-11T09:49:03.351Z,502.00
2023-02-11T09:50:03.216Z,502.00
2023-02-11T09:51:03.147Z,498.00
2023-02-11T09:52:03.045Z,498.00
2023-02-11T09:53:02.962Z,498.00
2023-02-11T09:54:05.472Z,496.00
2023-02-11T09:55:03.747Z,496.00
2023-02-11T09:56:02.688Z,497.00
2023-02-11T09:57:02.624Z,498.00
2023-02-11T09:58:02.507Z,499.00
2023-02-11T09:59:02.390Z,499.00
2023-02-11T10:00:02.310Z,497.00
2023-02-11T10:01:02.211Z,497.00
2023-02-11T10:02:02.104Z,499.00
2023-02-11T10:03:01.984Z,500.00
2023-02-11T10:04:01.961Z,500.00
2023-02-11T10:05:01.858Z,498.00
2023-02-11T10:06:01.775Z,499.00
2023-02-11T10:07:02.343Z,500.00
2023-02-11T10:08:01.533Z,501.00
2023-02-11T10:09:01.437Z,500.00
2023-02-11T10:10:01.335Z,503.00
2023-02-11T10:11:01.237Z,504.00
2023-02-11T10:12:01.139Z,502.00
2023-02-11T10:13:01.028Z,503.00
2023-02-11T10:14:00.967Z,500.00
2023-02-11T10:15:01.774Z,498.00
2023-02-11T10:16:00.828Z,501.00
2023-02-11T10:17:00.676Z,505.00
2023-02-11T10:18:00.604Z,503.00
2023-02-11T10:19:00.516Z,502.00
2023-02-11T10:20:00.408Z,504.00
2023-02-11T10:21:00.322Z,506.00
2023-02-11T10:22:00.229Z,505.00
2023-02-11T10:23:00.129Z,504.00
2023-02-11T10:24:00.042Z,503.00
2023-02-11T10:25:00.776Z,499.00
2023-02-11T10:25:59.850Z,499.00
2023-02-11T10:26:59.776Z,499.00
2023-02-11T10:27:59.790Z,497.00
2023-02-11T10:28:59.570Z,499.00
2023-02-11T10:29:59.466Z,499.00
2023-02-11T10:30:59.530Z,504.00
2023-02-11T10:31:59.391Z,506.00
2023-02-11T10:32:59.196Z,504.00
2023-02-11T10:34:00.747Z,500.00
2023-02-11T10:34:59.041Z,499.00
2023-02-11T10:35:58.945Z,501.00
2023-02-11T10:36:58.858Z,501.00
2023-02-11T10:37:58.726Z,499.00
2023-02-11T10:38:58.643Z,500.00
2023-02-11T10:39:58.560Z,500.00
2023-02-11T10:40:58.458Z,499.00
2023-02-11T10:41:58.395Z,496.00
2023-02-11T10:42:58.258Z,497.00
2023-02-11T10:43:58.180Z,497.00
2023-02-11T10:44:58.069Z,496.00
2023-02-11T10:45:58.025Z,494.00
2023-02-11T10:46:57.877Z,492.00
2023-02-11T10:47:57.794Z,495.00
2023-02-11T10:48:57.695Z,496.00
2023-02-11T10:49:57.588Z,495.00
2023-02-11T10:50:57.501Z,497.00
2023-02-11T10:51:57.379Z,497.00
2023-02-11T10:52:57.309Z,496.00
2023-02-11T10:53:57.185Z,493.00
2023-02-11T10:54:57.787Z,490.00
2023-02-11T10:55:57.018Z,492.00
2023-02-11T10:56:56.917Z,493.00
2023-02-11T10:57:57.782Z,494.00
2023-02-11T10:58:56.707Z,495.00
2023-02-11T10:59:56.610Z,494.00
2023-02-11T11:00:56.526Z,491.00
2023-02-11T11:01:56.531Z,493.00
2023-02-11T11:02:56.332Z,495.00
2023-02-11T11:03:56.246Z,494.00
2023-02-11T11:04:56.189Z,495.00
2023-02-11T11:05:58.168Z,495.00
2023-02-11T11:06:56.077Z,494.00
2023-02-11T11:07:55.980Z,494.00
2023-02-11T11:08:55.875Z,495.00
2023-02-11T11:09:55.768Z,493.00
2023-02-11T11:10:55.677Z,491.00
2023-02-11T11:11:55.597Z,493.00
2023-02-11T11:12:55.482Z,492.00
2023-02-11T11:13:55.403Z,494.00
2023-02-11T11:14:55.450Z,496.00
2023-02-11T11:15:55.379Z,496.00
2023-02-11T11:16:55.306Z,496.00
2023-02-11T11:18:07.249Z,496.00
2023-02-11T11:18:56.153Z,497.00
2023-02-11T11:19:55.033Z,496.00
2023-02-11T11:20:54.937Z,499.00
2023-02-11T11:21:54.842Z,496.00
2023-02-11T11:22:54.772Z,496.00
2023-02-11T11:23:54.642Z,496.00
2023-02-11T11:24:54.558Z,496.00
2023-02-11T11:25:54.443Z,498.00
2023-02-11T11:26:54.349Z,498.00
2023-02-11T11:27:54.258Z,498.00
2023-02-11T11:28:54.162Z,500.00
2023-02-11T11:29:54.057Z,500.00
2023-02-11T11:30:54.352Z,497.00
2023-02-11T11:34:53.577Z,497.00
2023-02-11T11:35:53.463Z,497.00
2023-02-11T11:36:53.363Z,496.00
2023-02-11T11:37:53.333Z,497.00
2023-02-11T11:38:53.158Z,497.00
2023-02-11T11:39:53.063Z,494.00
2023-02-11T11:40:52.935Z,493.00
2023-02-11T11:41:52.847Z,491.00
2023-02-11T11:42:52.790Z,491.00
2023-02-11T11:43:52.659Z,489.00
2023-02-11T11:44:52.557Z,488.00
2023-02-11T11:45:52.461Z,488.00
2023-02-11T11:46:52.391Z,487.00
2023-02-11T11:47:52.270Z,488.00
2023-02-11T11:48:52.156Z,488.00
2023-02-11T11:49:52.074Z,489.00
2023-02-11T11:50:52.313Z,490.00
2023-02-11T11:51:51.853Z,491.00
2023-02-11T11:52:51.768Z,492.00
2023-02-11T11:53:51.698Z,491.00
2023-02-11T11:54:51.619Z,491.00
2023-02-11T11:55:51.490Z,491.00
2023-02-11T11:56:51.402Z,491.00
2023-02-11T11:57:51.299Z,494.00
2023-02-11T11:58:51.165Z,495.00
2023-02-11T11:59:51.069Z,493.00
2023-02-11T12:00:51.268Z,491.00
2023-02-11T12:01:50.928Z,492.00
2023-02-11T12:02:50.841Z,497.00
2023-02-11T12:03:50.694Z,499.00
2023-02-11T12:04:50.675Z,498.00
2023-02-11T12:05:50.518Z,495.00
2023-02-11T12:06:50.409Z,493.00
2023-02-11T12:07:50.306Z,489.00
2023-02-11T12:08:50.204Z,491.00
2023-02-11T12:09:50.065Z,491.00
2023-02-11T12:10:50.329Z,492.00
2023-02-11T12:11:49.888Z,492.00
2023-02-11T12:12:49.802Z,493.00
2023-02-11T12:13:49.699Z,493.00
2023-02-11T12:14:49.573Z,494.00
2023-02-11T12:15:49.483Z,492.00
2023-02-11T12:16:49.442Z,492.00
2023-02-11T12:17:49.274Z,491.00
2023-02-11T12:18:49.171Z,490.00
2023-02-11T12:19:49.072Z,491.00
2023-02-11T12:20:49.283Z,492.00
2023-02-11T12:21:48.853Z,488.00
2023-02-11T12:22:48.763Z,489.00
2023-02-11T12:23:48.658Z,490.00
2023-02-11T12:24:48.566Z,492.00
2023-02-11T12:25:48.433Z,489.00
2023-02-11T12:26:48.331Z,491.00
2023-02-11T12:27:48.378Z,492.00
2023-02-11T12:28:48.144Z,490.00
2023-02-11T12:29:48.030Z,490.00
2023-02-11T12:30:48.056Z,491.00
2023-02-11T12:31:47.858Z,489.00
2023-02-11T12:32:47.750Z,486.00
2023-02-11T12:33:47.654Z,487.00
2023-02-11T12:34:47.548Z,489.00
2023-02-11T12:35:47.449Z,489.00
2023-02-11T12:36:47.394Z,488.00
2023-02-11T12:37:47.226Z,486.00
2023-02-11T12:38:47.130Z,488.00
2023-02-11T12:39:47.028Z,491.00
2023-02-11T12:40:46.974Z,490.00
2023-02-11T12:41:46.826Z,489.00
2023-02-11T12:42:46.718Z,493.00
2023-02-11T12:43:46.823Z,492.00
2023-02-11T12:44:46.516Z,490.00
2023-02-11T12:45:48.345Z,490.00
2023-02-11T12:46:46.305Z,489.00
2023-02-11T12:47:46.214Z,489.00
2023-02-11T12:48:46.129Z,490.00
2023-02-11T12:49:46.023Z,490.00
2023-02-11T12:50:45.907Z,487.00
2023-02-11T12:51:45.815Z,486.00
2023-02-11T12:52:45.727Z,486.00
2023-02-11T12:53:45.575Z,485.00
2023-02-11T12:54:45.520Z,489.00
2023-02-11T12:55:45.377Z,492.00
2023-02-11T12:56:45.288Z,492.00
2023-02-11T12:57:45.173Z,492.00
2023-02-11T12:58:45.882Z,494.00
2023-02-11T12:59:44.993Z,492.00
2023-02-11T13:00:44.904Z,492.00
2023-02-11T13:01:44.860Z,493.00
2023-02-11T13:02:44.718Z,490.00
2023-02-11T13:03:44.560Z,489.00
2023-02-11T13:04:44.468Z,485.00
2023-02-11T13:05:44.374Z,483.00
2023-02-11T13:06:44.249Z,484.00
2023-02-11T13:07:44.182Z,484.00
2023-02-11T14:17:31.328Z,477.00
2023-02-11T18:14:27.054Z,462.00
2023-02-11T18:15:27.052Z,461.00
2023-02-11T18:16:27.063Z,463.00
2023-02-11T18:17:27.035Z,462.00
2023-02-11T18:18:27.019Z,462.00
2023-02-11T18:19:26.995Z,460.00
2023-02-11T18:20:26.990Z,460.00
2023-02-11T18:21:26.978Z,461.00
2023-02-11T18:22:26.955Z,465.00
2023-02-11T18:23:26.957Z,465.00
2023-02-11T18:24:26.916Z,467.00
2023-02-11T18:25:26.951Z,465.00
2023-02-11T18:26:26.899Z,460.00
2023-02-11T18:27:26.885Z,461.00
2023-02-11T18:28:26.919Z,461.00
2023-02-11T18:29:26.865Z,463.00
2023-02-11T18:30:26.842Z,463.00
2023-02-11T18:31:26.855Z,462.00
2023-02-11T18:32:26.841Z,461.00
2023-02-11T18:33:26.789Z,463.00
2023-02-11T18:34:26.792Z,456.00
2023-02-11T18:35:26.775Z,461.00
2023-02-11T18:36:26.759Z,464.00
2023-02-11T18:37:26.718Z,463.00
2023-02-11T18:38:26.709Z,464.00
2023-02-11T18:39:26.712Z,463.00
2023-02-11T18:40:26.666Z,461.00
2023-02-11T18:41:26.673Z,462.00
2023-02-11T18:42:26.632Z,462.00
2023-02-11T18:43:26.633Z,463.00
2023-02-11T18:44:26.614Z,460.00
2023-02-11T18:45:26.605Z,460.00
2023-02-11T18:46:26.707Z,460.00
2023-02-11T18:47:26.554Z,460.00
2023-02-11T18:48:26.570Z,459.00
2023-02-11T18:49:26.520Z,459.00
2023-02-11T18:50:26.515Z,461.00
2023-02-11T18:51:26.495Z,459.00
2023-02-11T18:52:26.459Z,458.00
2023-02-11T18:53:26.473Z,458.00
2023-02-11T18:54:26.440Z,457.00
2023-02-11T18:55:26.447Z,456.00
2023-02-11T18:56:26.399Z,457.00
2023-02-11T18:57:26.387Z,457.00
2023-02-11T18:58:26.358Z,459.00
2023-02-11T18:59:26.361Z,463.00
2023-02-11T19:00:26.349Z,465.00
2023-02-11T19:01:26.409Z,464.00
2023-02-11T19:02:26.308Z,460.00
2023-02-11T19:03:26.285Z,461.00
2023-02-11T19:04:26.319Z,460.00
2023-02-11T19:05:26.267Z,457.00
2023-02-11T19:06:26.242Z,457.00
2023-02-11T19:07:26.250Z,456.00
2023-02-11T19:08:26.208Z,457.00
2023-02-11T19:09:26.188Z,457.00
2023-02-11T19:10:26.197Z,457.00
2023-02-11T19:11:26.187Z,455.00
2023-02-11T19:12:26.175Z,457.00
2023-02-11T19:13:26.144Z,459.00
2023-02-11T19:14:26.183Z,462.00
2023-02-11T19:15:26.133Z,463.00
2023-02-11T19:16:26.268Z,463.00
2023-02-11T19:17:26.096Z,464.00
2023-02-11T19:18:26.109Z,468.00
2023-02-11T19:19:26.088Z,469.00
2023-02-11T19:20:26.051Z,472.00
2023-02-11T19:21:26.062Z,470.00
2023-02-11T19:22:26.046Z,470.00
2023-02-11T19:23:26.047Z,470.00
2023-02-11T19:24:26.028Z,469.00
2023-02-11T19:25:26.016Z,469.00
2023-02-11T19:26:25.994Z,467.00
2023-02-11T19:27:25.999Z,467.00
2023-02-11T19:28:25.977Z,466.00
2023-02-11T19:29:25.975Z,466.00
2023-02-11T19:30:25.962Z,467.00
2023-02-11T19:31:26.074Z,467.00
2023-02-11T19:32:25.929Z,467.00
2023-02-11T19:33:26.821Z,466.00
2023-02-11T19:34:25.908Z,467.00
2023-02-11T19:35:25.901Z,467.00
2023-02-11T19:36:25.874Z,464.00
2023-02-11T19:37:25.865Z,466.00
2023-02-11T19:38:25.852Z,464.00
2023-02-11T19:39:25.877Z,463.00
2023-02-11T19:40:25.873Z,460.00
2023-02-11T19:41:25.823Z,463.00
2023-02-11T19:42:27.500Z,466.00
2023-02-11T19:43:25.813Z,462.00
2023-02-11T19:44:25.781Z,462.00
2023-02-11T19:45:25.776Z,464.00
2023-02-11T19:46:25.793Z,464.00
2023-02-11T19:47:25.738Z,460.00
2023-02-11T19:48:25.721Z,464.00
2023-02-11T19:49:25.729Z,464.00
2023-02-11T19:50:25.694Z,466.00
2023-02-11T19:51:25.702Z,468.00
2023-02-11T19:52:25.703Z,465.00
2023-02-11T19:53:25.656Z,467.00
2023-02-11T19:54:25.641Z,466.00
2023-02-11T19:55:25.686Z,472.00
2023-02-11T19:56:25.632Z,470.00
2023-02-11T19:57:25.622Z,471.00
2023-02-11T19:58:25.596Z,471.00
2023-02-11T19:59:25.592Z,472.00
2023-02-11T20:00:25.584Z,471.00
2023-02-11T20:01:25.615Z,474.00
2023-02-11T20:02:25.607Z,475.00
2023-02-11T20:03:25.541Z,475.00
2023-02-11T20:04:25.516Z,474.00
2023-02-11T20:05:25.528Z,470.00
2023-02-11T20:06:25.494Z,471.00
2023-02-11T20:07:25.500Z,470.00
2023-02-11T20:08:25.477Z,469.00
2023-02-11T20:09:25.478Z,470.00
2023-02-11T20:10:25.933Z,470.00
2023-02-11T20:11:25.460Z,472.00
2023-02-11T20:12:25.438Z,474.00
2023-02-11T20:13:25.449Z,471.00
2023-02-11T20:14:27.829Z,467.00
2023-02-11T20:15:25.604Z,467.00
2023-02-11T20:16:40.781Z,465.00
2023-02-11T20:17:26.576Z,470.00
2023-02-11T20:18:25.562Z,468.00
2023-02-11T20:19:25.513Z,469.00
2023-02-11T20:20:25.512Z,466.00
2023-02-11T20:21:25.485Z,466.00
2023-02-11T20:22:25.485Z,468.00
2023-02-11T20:23:25.461Z,469.00
2023-02-11T20:24:25.517Z,469.00
2023-02-11T20:25:25.440Z,471.00
2023-02-11T20:26:25.451Z,470.00
2023-02-11T20:27:25.390Z,471.00
2023-02-11T20:28:25.420Z,472.00
2023-02-11T20:29:25.365Z,471.00
2023-02-11T20:30:25.365Z,468.00
2023-02-11T20:31:25.509Z,470.00
2023-02-11T20:32:25.348Z,471.00
2023-02-11T20:33:25.329Z,472.00
2023-02-11T20:34:25.377Z,470.00
2023-02-11T20:35:25.302Z,468.00
2023-02-11T20:36:25.309Z,465.00
2023-02-11T20:37:25.320Z,466.00
2023-02-11T20:38:25.283Z,470.00
2023-02-11T20:39:25.317Z,471.00
2023-02-11T20:40:25.241Z,466.00
2023-02-11T20:41:25.238Z,466.00
2023-02-11T20:42:25.239Z,467.00
2023-02-11T20:43:25.209Z,469.00
2023-02-11T20:44:25.218Z,462.00
2023-02-11T20:45:25.246Z,464.00
2023-02-11T20:46:25.282Z,465.00
2023-02-11T20:47:25.185Z,468.00
2023-02-11T20:48:25.176Z,470.00
2023-02-11T20:49:25.193Z,471.00
2023-02-11T20:50:25.130Z,472.00
2023-02-11T20:51:25.879Z,467.00
2023-02-11T20:52:25.117Z,465.00
2023-02-11T20:53:25.115Z,466.00
2023-02-11T20:54:25.120Z,466.00
2023-02-11T20:55:25.125Z,467.00
2023-02-11T20:56:25.089Z,470.00
2023-02-11T20:57:25.094Z,467.00
2023-02-11T20:58:25.353Z,469.00
2023-02-11T20:59:25.054Z,469.00
2023-02-11T21:00:25.068Z,468.00
2023-02-11T21:01:25.068Z,467.00
2023-02-11T21:02:25.087Z,468.00
2023-02-11T21:03:25.029Z,467.00
2023-02-11T21:04:25.011Z,468.00
2023-02-11T21:05:25.004Z,467.00
2023-02-11T21:06:24.983Z,464.00
2023-02-11T21:07:24.966Z,463.00
2023-02-11T21:08:24.961Z,466.00
2023-02-11T21:09:24.984Z,467.00
2023-02-11T21:10:24.968Z,468.00
2023-02-11T21:11:24.929Z,467.00
2023-02-11T21:12:24.925Z,467.00
2023-02-11T21:13:24.901Z,469.00
2023-02-11T21:14:24.903Z,471.00
2023-02-11T21:15:24.887Z,470.00
2023-02-11T21:16:24.894Z,468.00
2023-02-11T21:17:24.855Z,467.00
2023-02-11T21:18:24.821Z,468.00
2023-02-11T21:19:24.871Z,469.00
2023-02-11T21:20:24.839Z,472.00
2023-02-11T21:21:24.847Z,472.00
2023-02-11T21:22:24.799Z,471.00
2023-02-11T21:23:24.797Z,472.00
2023-02-11T21:24:24.766Z,472.00
2023-02-11T21:25:24.777Z,470.00
2023-02-11T21:26:25.359Z,470.00
2023-02-11T21:27:24.728Z,468.00
2023-02-11T21:28:24.731Z,470.00
2023-02-11T21:29:24.731Z,471.00
2023-02-11T21:30:24.695Z,474.00
2023-02-11T21:31:25.422Z,473.00
2023-02-11T21:32:24.676Z,470.00
2023-02-11T21:33:24.655Z,470.00
2023-02-11T21:34:24.622Z,470.00
2023-02-11T21:35:24.603Z,469.00
2023-02-11T21:36:25.362Z,470.00
2023-02-11T21:37:24.583Z,469.00
2023-02-11T21:38:24.551Z,469.00
2023-02-11T21:39:24.559Z,473.00
2023-02-11T21:40:24.533Z,474.00
2023-02-11T21:41:24.574Z,475.00
2023-02-11T21:42:24.520Z,474.00
2023-02-11T21:43:24.530Z,474.00
2023-02-11T21:44:24.485Z,474.00
2023-02-11T21:45:24.453Z,477.00
2023-02-11T21:46:24.488Z,475.00
2023-02-11T21:47:24.410Z,478.00
2023-02-11T21:48:24.418Z,477.00
2023-02-11T21:49:24.387Z,478.00
2023-02-11T21:50:24.368Z,477.00
2023-02-11T21:51:24.364Z,480.00
2023-02-11T21:52:24.337Z,482.00